sensor_id;sensor_type;location;lat;lon;timestamp;temperature;humidity
21092;DHT22;10704;42.678;23.288;2023-12-20T00:00:44;0.60;99.90
21092;DHT22;10704;42.678;23.288;2023-12-20T00:03:12;0.60;99.90
21092;DHT22;10704;42.678;23.288;2023-12-20T00:05:38;0.70;99.90
21092;DHT22;10704;42.678;23.288;2023-12-20T00:08:07;0.90;99.90
21092;DHT22;10704;42.678;23.288;2023-12-20T00:10:35;0.80;99.90
21092;DHT22;10704;42.678;23.288;2023-12-20T00:13:07;0.70;99.90
21092;DHT22;10704;42.678;23.288;2023-12-20T00:15:35;0.50;99.90
21092;DHT22;10704;42.678;23.288;2023-12-20T00:18:01;0.60;99.90
21092;DHT22;10704;42.678;23.288;2023-12-20T00:20:28;0.50;99.90
21092;DHT22;10704;42.678;23.288;2023-12-20T00:22:57;0.60;99.90
21092;DHT22;10704;42.678;23.288;2023-12-20T00:25:26;0.50;99.90
21092;DHT22;10704;42.678;23.288;2023-12-20T00:27:54;0.50;99.90
21092;DHT22;10704;42.678;23.288;2023-12-20T00:30:23;0.50;99.90
21092;DHT22;10704;42.678;23.288;2023-12-20T00:32:55;0.50;99.90
21092;DHT22;10704;42.678;23.288;2023-12-20T00:35:24;0.50;99.90
21092;DHT22;10704;42.678;23.288;2023-12-20T00:37:54;0.60;99.90
21092;DHT22;10704;42.678;23.288;2023-12-20T00:40:20;0.80;99.90
21092;DHT22;10704;42.678;23.288;2023-12-20T00:42:46;0.90;99.90
21092;DHT22;10704;42.678;23.288;2023-12-20T00:45:21;1.00;99.90
21092;DHT22;10704;42.678;23.288;2023-12-20T00:47:56;1.00;99.90
21092;DHT22;10704;42.678;23.288;2023-12-20T00:50:25;1.10;99.90
21092;DHT22;10704;42.678;23.288;2023-12-20T00:52:54;1.10;99.90
21092;DHT22;10704;42.678;23.288;2023-12-20T00:55:20;1.10;99.90
21092;DHT22;10704;42.678;23.288;2023-12-20T00:57:52;1.00;99.90
21092;DHT22;10704;42.678;23.288;2023-12-20T01:00:21;1.10;99.90
21092;DHT22;10704;42.678;23.288;2023-12-20T01:02:52;1.10;99.90
21092;DHT22;10704;42.678;23.288;2023-12-20T01:05:21;1.10;99.90
21092;DHT22;10704;42.678;23.288;2023-12-20T01:07:52;1.20;99.90
21092;DHT22;10704;42.678;23.288;2023-12-20T01:10:20;1.10;99.90
21092;DHT22;10704;42.678;23.288;2023-12-20T01:12:49;1.20;99.90
21092;DHT22;10704;42.678;23.288;2023-12-20T01:15:18;1.20;99.90
21092;DHT22;10704;42.678;23.288;2023-12-20T01:17:44;1.20;99.90
21092;DHT22;10704;42.678;23.288;2023-12-20T01:20:14;1.10;99.90
21092;DHT22;10704;42.678;23.288;2023-12-20T01:22:42;1.10;99.90
21092;DHT22;10704;42.678;23.288;2023-12-20T01:25:08;1.10;99.90
21092;DHT22;10704;42.678;23.288;2023-12-20T01:27:39;1.10;99.90
21092;DHT22;10704;42.678;23.288;2023-12-20T01:30:08;0.90;99.90
21092;DHT22;10704;42.678;23.288;2023-12-20T01:32:40;0.80;99.90
21092;DHT22;10704;42.678;23.288;2023-12-20T01:35:06;0.80;99.90
21092;DHT22;10704;42.678;23.288;2023-12-20T01:37:35;0.80;99.90
21092;DHT22;10704;42.678;23.288;2023-12-20T01:40:06;0.70;99.90
21092;DHT22;10704;42.678;23.288;2023-12-20T01:42:38;0.60;99.90
21092;DHT22;10704;42.678;23.288;2023-12-20T01:45:07;0.70;99.90
21092;DHT22;10704;42.678;23.288;2023-12-20T01:47:35;0.70;99.90
21092;DHT22;10704;42.678;23.288;2023-12-20T01:50:01;0.70;99.90
21092;DHT22;10704;42.678;23.288;2023-12-20T01:52:36;0.70;99.90
21092;DHT22;10704;42.678;23.288;2023-12-20T01:55:08;0.70;99.90
21092;DHT22;10704;42.678;23.288;2023-12-20T01:57:43;0.80;99.90
21092;DHT22;10704;42.678;23.288;2023-12-20T02:00:13;0.80;99.90
21092;DHT22;10704;42.678;23.288;2023-12-20T02:02:43;0.70;99.90
21092;DHT22;10704;42.678;23.288;2023-12-20T02:05:12;0.60;99.90
21092;DHT22;10704;42.678;23.288;2023-12-20T02:07:45;0.60;99.90
21092;DHT22;10704;42.678;23.288;2023-12-20T02:10:17;0.70;99.90
21092;DHT22;10704;42.678;23.288;2023-12-20T02:12:43;0.60;99.90
21092;DHT22;10704;42.678;23.288;2023-12-20T02:15:12;0.50;99.90
21092;DHT22;10704;42.678;23.288;2023-12-20T02:17:44;0.30;99.90
21092;DHT22;10704;42.678;23.288;2023-12-20T02:20:14;0.20;99.90
21092;DHT22;10704;42.678;23.288;2023-12-20T02:22:40;0.20;99.90
21092;DHT22;10704;42.678;23.288;2023-12-20T02:25:09;0.10;99.90
21092;DHT22;10704;42.678;23.288;2023-12-20T02:27:39;0.20;99.90
21092;DHT22;10704;42.678;23.288;2023-12-20T02:30:06;0.20;99.90
21092;DHT22;10704;42.678;23.288;2023-12-20T02:32:35;0.10;99.90
21092;DHT22;10704;42.678;23.288;2023-12-20T02:35:00;0.00;99.90
21092;DHT22;10704;42.678;23.288;2023-12-20T02:37:29;-0.10;99.90
21092;DHT22;10704;42.678;23.288;2023-12-20T02:40:00;-0.10;99.90
21092;DHT22;10704;42.678;23.288;2023-12-20T02:42:26;-0.20;99.90
21092;DHT22;10704;42.678;23.288;2023-12-20T02:44:57;-0.10;99.90
21092;DHT22;10704;42.678;23.288;2023-12-20T02:47:23;-0.10;99.90
21092;DHT22;10704;42.678;23.288;2023-12-20T02:49:56;0.00;99.90
21092;DHT22;10704;42.678;23.288;2023-12-20T02:52:27;0.00;99.90
21092;DHT22;10704;42.678;23.288;2023-12-20T02:54:56;-0.10;99.90
21092;DHT22;10704;42.678;23.288;2023-12-20T02:57:25;-0.20;99.90
21092;DHT22;10704;42.678;23.288;2023-12-20T02:59:59;-0.20;99.90
21092;DHT22;10704;42.678;23.288;2023-12-20T03:02:27;-0.30;99.90
21092;DHT22;10704;42.678;23.288;2023-12-20T03:05:01;-0.40;99.90
21092;DHT22;10704;42.678;23.288;2023-12-20T03:07:29;-0.40;99.90
21092;DHT22;10704;42.678;23.288;2023-12-20T03:10:00;-0.40;99.90
21092;DHT22;10704;42.678;23.288;2023-12-20T03:12:29;-0.40;99.90
21092;DHT22;10704;42.678;23.288;2023-12-20T03:15:00;-0.40;99.90
21092;DHT22;10704;42.678;23.288;2023-12-20T03:17:31;-0.30;99.90
21092;DHT22;10704;42.678;23.288;2023-12-20T03:19:59;-0.40;99.90
21092;DHT22;10704;42.678;23.288;2023-12-20T03:22:25;-0.40;99.90
21092;DHT22;10704;42.678;23.288;2023-12-20T03:24:54;-0.20;99.90
21092;DHT22;10704;42.678;23.288;2023-12-20T03:27:23;0.00;99.90
21092;DHT22;10704;42.678;23.288;2023-12-20T03:29:56;-0.10;99.90
21092;DHT22;10704;42.678;23.288;2023-12-20T03:32:24;-0.20;99.90
21092;DHT22;10704;42.678;23.288;2023-12-20T03:34:55;-0.40;99.90
21092;DHT22;10704;42.678;23.288;2023-12-20T03:37:28;-0.40;99.90
21092;DHT22;10704;42.678;23.288;2023-12-20T03:39:58;-0.50;99.90
21092;DHT22;10704;42.678;23.288;2023-12-20T03:42:27;-0.50;99.90
21092;DHT22;10704;42.678;23.288;2023-12-20T03:44:56;-0.50;99.90
21092;DHT22;10704;42.678;23.288;2023-12-20T03:47:27;-0.50;99.90
21092;DHT22;10704;42.678;23.288;2023-12-20T03:49:56;-0.50;99.90
21092;DHT22;10704;42.678;23.288;2023-12-20T03:52:28;-0.60;99.90
21092;DHT22;10704;42.678;23.288;2023-12-20T03:55:01;-0.70;99.90
21092;DHT22;10704;42.678;23.288;2023-12-20T03:57:32;-0.60;99.90
21092;DHT22;10704;42.678;23.288;2023-12-20T04:00:04;-0.70;99.90
21092;DHT22;10704;42.678;23.288;2023-12-20T04:02:41;-0.60;99.90
21092;DHT22;10704;42.678;23.288;2023-12-20T04:05:11;-0.70;99.90
21092;DHT22;10704;42.678;23.288;2023-12-20T04:07:42;-0.70;99.90
21092;DHT22;10704;42.678;23.288;2023-12-20T04:10:08;-0.80;99.90
21092;DHT22;10704;42.678;23.288;2023-12-20T04:12:39;-0.80;99.90
21092;DHT22;10704;42.678;23.288;2023-12-20T04:15:12;-0.80;99.90
21092;DHT22;10704;42.678;23.288;2023-12-20T04:17:37;-0.70;99.90
21092;DHT22;10704;42.678;23.288;2023-12-20T04:20:09;-0.80;99.90
21092;DHT22;10704;42.678;23.288;2023-12-20T04:22:40;-0.80;99.90
21092;DHT22;10704;42.678;23.288;2023-12-20T04:25:10;-0.80;99.90
21092;DHT22;10704;42.678;23.288;2023-12-20T04:27:41;-0.80;99.90
21092;DHT22;10704;42.678;23.288;2023-12-20T04:30:10;-0.80;99.90
21092;DHT22;10704;42.678;23.288;2023-12-20T04:32:41;-0.90;99.90
21092;DHT22;10704;42.678;23.288;2023-12-20T04:35:09;-0.90;99.90
21092;DHT22;10704;42.678;23.288;2023-12-20T04:37:40;-0.90;99.90
21092;DHT22;10704;42.678;23.288;2023-12-20T04:40:09;-0.70;99.90
21092;DHT22;10704;42.678;23.288;2023-12-20T04:42:39;-0.60;99.90
21092;DHT22;10704;42.678;23.288;2023-12-20T04:45:06;-0.70;99.90
21092;DHT22;10704;42.678;23.288;2023-12-20T04:47:39;-0.80;99.90
21092;DHT22;10704;42.678;23.288;2023-12-20T04:50:05;-0.80;99.90
21092;DHT22;10704;42.678;23.288;2023-12-20T04:52:40;-0.80;99.90
21092;DHT22;10704;42.678;23.288;2023-12-20T04:55:09;-0.90;99.90
21092;DHT22;10704;42.678;23.288;2023-12-20T04:57:35;-0.80;99.90
21092;DHT22;10704;42.678;23.288;2023-12-20T05:00:07;-0.90;99.90
21092;DHT22;10704;42.678;23.288;2023-12-20T05:02:35;-1.00;99.90
21092;DHT22;10704;42.678;23.288;2023-12-20T05:05:08;-0.90;99.90
21092;DHT22;10704;42.678;23.288;2023-12-20T05:07:34;-1.00;99.90
21092;DHT22;10704;42.678;23.288;2023-12-20T05:10:05;-1.10;99.90
21092;DHT22;10704;42.678;23.288;2023-12-20T05:12:33;-1.20;99.90
21092;DHT22;10704;42.678;23.288;2023-12-20T05:15:00;-1.40;99.90
21092;DHT22;10704;42.678;23.288;2023-12-20T05:17:31;-1.50;99.90
21092;DHT22;10704;42.678;23.288;2023-12-20T05:20:03;-1.50;99.90
21092;DHT22;10704;42.678;23.288;2023-12-20T05:22:32;-1.50;99.90
21092;DHT22;10704;42.678;23.288;2023-12-20T05:25:01;-1.60;99.90
21092;DHT22;10704;42.678;23.288;2023-12-20T05:27:29;-1.60;99.90
21092;DHT22;10704;42.678;23.288;2023-12-20T05:30:06;-1.80;99.90
21092;DHT22;10704;42.678;23.288;2023-12-20T05:32:40;-1.70;99.90
21092;DHT22;10704;42.678;23.288;2023-12-20T05:35:10;-1.70;99.90
21092;DHT22;10704;42.678;23.288;2023-12-20T05:37:39;-1.70;99.90
21092;DHT22;10704;42.678;23.288;2023-12-20T05:40:13;-1.80;99.90
21092;DHT22;10704;42.678;23.288;2023-12-20T05:42:39;-1.80;99.90
21092;DHT22;10704;42.678;23.288;2023-12-20T05:45:14;-1.70;99.90
21092;DHT22;10704;42.678;23.288;2023-12-20T05:47:46;-1.60;99.90
21092;DHT22;10704;42.678;23.288;2023-12-20T05:50:15;-1.50;99.90
21092;DHT22;10704;42.678;23.288;2023-12-20T05:52:45;-1.50;99.90
21092;DHT22;10704;42.678;23.288;2023-12-20T05:55:14;-1.60;99.90
21092;DHT22;10704;42.678;23.288;2023-12-20T05:57:40;-1.50;99.90
21092;DHT22;10704;42.678;23.288;2023-12-20T06:00:10;-1.60;99.90
21092;DHT22;10704;42.678;23.288;2023-12-20T06:02:39;-1.60;99.90
21092;DHT22;10704;42.678;23.288;2023-12-20T06:05:14;-1.60;99.90
21092;DHT22;10704;42.678;23.288;2023-12-20T06:07:40;-1.60;99.90
21092;DHT22;10704;42.678;23.288;2023-12-20T06:10:06;-1.50;99.90
21092;DHT22;10704;42.678;23.288;2023-12-20T06:12:32;-1.50;99.90
21092;DHT22;10704;42.678;23.288;2023-12-20T06:15:03;-1.40;99.90
21092;DHT22;10704;42.678;23.288;2023-12-20T06:17:32;-1.40;99.90
21092;DHT22;10704;42.678;23.288;2023-12-20T06:20:03;-1.40;99.90
21092;DHT22;10704;42.678;23.288;2023-12-20T06:22:36;-1.30;99.90
21092;DHT22;10704;42.678;23.288;2023-12-20T06:25:07;-1.40;99.90
21092;DHT22;10704;42.678;23.288;2023-12-20T06:27:36;-1.40;99.90
21092;DHT22;10704;42.678;23.288;2023-12-20T06:30:05;-1.40;99.90
21092;DHT22;10704;42.678;23.288;2023-12-20T06:32:39;-1.50;99.90
21092;DHT22;10704;42.678;23.288;2023-12-20T06:35:11;-1.50;99.90
21092;DHT22;10704;42.678;23.288;2023-12-20T06:37:42;-1.70;99.90
21092;DHT22;10704;42.678;23.288;2023-12-20T06:40:14;-1.50;99.90
21092;DHT22;10704;42.678;23.288;2023-12-20T06:42:46;-1.60;99.90
21092;DHT22;10704;42.678;23.288;2023-12-20T06:45:15;-1.60;99.90
21092;DHT22;10704;42.678;23.288;2023-12-20T06:47:44;-1.50;99.90
21092;DHT22;10704;42.678;23.288;2023-12-20T06:50:10;-1.60;99.90
21092;DHT22;10704;42.678;23.288;2023-12-20T06:52:39;-1.60;99.90
21092;DHT22;10704;42.678;23.288;2023-12-20T06:55:10;-1.70;99.90
21092;DHT22;10704;42.678;23.288;2023-12-20T06:57:40;-1.60;99.90
21092;DHT22;10704;42.678;23.288;2023-12-20T07:00:11;-1.50;99.90
21092;DHT22;10704;42.678;23.288;2023-12-20T07:02:39;-1.60;99.90
21092;DHT22;10704;42.678;23.288;2023-12-20T07:05:08;-1.50;99.90
21092;DHT22;10704;42.678;23.288;2023-12-20T07:07:34;-1.30;99.90
21092;DHT22;10704;42.678;23.288;2023-12-20T07:10:02;-1.30;99.90
21092;DHT22;10704;42.678;23.288;2023-12-20T07:12:32;-1.30;99.90
21092;DHT22;10704;42.678;23.288;2023-12-20T07:14:57;-1.20;99.90
21092;DHT22;10704;42.678;23.288;2023-12-20T07:17:32;-1.20;99.90
21092;DHT22;10704;42.678;23.288;2023-12-20T07:20:04;-1.10;99.90
21092;DHT22;10704;42.678;23.288;2023-12-20T07:22:38;-0.90;99.90
21092;DHT22;10704;42.678;23.288;2023-12-20T07:25:07;-0.70;99.90
21092;DHT22;10704;42.678;23.288;2023-12-20T07:27:39;-0.40;99.90
21092;DHT22;10704;42.678;23.288;2023-12-20T07:30:08;-0.40;99.90
21092;DHT22;10704;42.678;23.288;2023-12-20T07:32:36;-0.30;99.90
21092;DHT22;10704;42.678;23.288;2023-12-20T07:35:05;-0.30;99.90
21092;DHT22;10704;42.678;23.288;2023-12-20T07:37:39;-0.30;99.90
21092;DHT22;10704;42.678;23.288;2023-12-20T07:40:10;-0.20;99.90
21092;DHT22;10704;42.678;23.288;2023-12-20T07:42:41;-0.20;99.90
21092;DHT22;10704;42.678;23.288;2023-12-20T07:45:12;-0.20;99.90
21092;DHT22;10704;42.678;23.288;2023-12-20T07:47:41;-0.20;99.90
21092;DHT22;10704;42.678;23.288;2023-12-20T07:50:16;-0.30;99.90
21092;DHT22;10704;42.678;23.288;2023-12-20T07:52:45;-0.40;99.90
21092;DHT22;10704;42.678;23.288;2023-12-20T07:55:20;-0.50;99.90
21092;DHT22;10704;42.678;23.288;2023-12-20T07:57:48;-0.40;99.90
21092;DHT22;10704;42.678;23.288;2023-12-20T08:00:17;-0.40;99.90
21092;DHT22;10704;42.678;23.288;2023-12-20T08:02:50;-0.30;99.90
21092;DHT22;10704;42.678;23.288;2023-12-20T08:05:19;-0.30;99.90
21092;DHT22;10704;42.678;23.288;2023-12-20T08:07:48;-0.30;99.90
21092;DHT22;10704;42.678;23.288;2023-12-20T08:10:19;-0.20;99.90
21092;DHT22;10704;42.678;23.288;2023-12-20T08:12:48;-0.20;99.90
21092;DHT22;10704;42.678;23.288;2023-12-20T08:15:17;-0.10;99.90
21092;DHT22;10704;42.678;23.288;2023-12-20T08:17:58;0.20;99.90
21092;DHT22;10704;42.678;23.288;2023-12-20T08:20:27;0.40;99.90
21092;DHT22;10704;42.678;23.288;2023-12-20T08:22:59;0.70;99.90
21092;DHT22;10704;42.678;23.288;2023-12-20T08:25:27;1.10;99.90
21092;DHT22;10704;42.678;23.288;2023-12-20T08:28:02;1.20;99.90
21092;DHT22;10704;42.678;23.288;2023-12-20T08:30:31;1.50;99.90
21092;DHT22;10704;42.678;23.288;2023-12-20T08:33:00;1.90;99.90
21092;DHT22;10704;42.678;23.288;2023-12-20T08:35:29;1.80;99.90
21092;DHT22;10704;42.678;23.288;2023-12-20T08:38:00;1.70;99.90
21092;DHT22;10704;42.678;23.288;2023-12-20T08:40:30;1.70;99.90
21092;DHT22;10704;42.678;23.288;2023-12-20T08:42:59;1.60;99.90
21092;DHT22;10704;42.678;23.288;2023-12-20T08:45:27;1.60;99.90
21092;DHT22;10704;42.678;23.288;2023-12-20T08:47:53;1.60;99.90
21092;DHT22;10704;42.678;23.288;2023-12-20T08:50:19;1.60;99.90
21092;DHT22;10704;42.678;23.288;2023-12-20T08:52:48;1.80;99.90
21092;DHT22;10704;42.678;23.288;2023-12-20T08:55:17;1.80;99.90
21092;DHT22;10704;42.678;23.288;2023-12-20T08:57:51;1.80;99.90
21092;DHT22;10704;42.678;23.288;2023-12-20T09:00:19;2.00;99.90
21092;DHT22;10704;42.678;23.288;2023-12-20T09:02:53;2.10;99.90
21092;DHT22;10704;42.678;23.288;2023-12-20T09:05:22;2.30;99.90
21092;DHT22;10704;42.678;23.288;2023-12-20T09:07:54;2.30;99.90
21092;DHT22;10704;42.678;23.288;2023-12-20T09:10:24;2.00;99.90
21092;DHT22;10704;42.678;23.288;2023-12-20T09:12:53;2.00;99.90
21092;DHT22;10704;42.678;23.288;2023-12-20T09:15:26;2.10;99.90
21092;DHT22;10704;42.678;23.288;2023-12-20T09:17:56;2.20;99.90
21092;DHT22;10704;42.678;23.288;2023-12-20T09:20:27;2.40;99.90
21092;DHT22;10704;42.678;23.288;2023-12-20T09:22:58;2.50;99.90
21092;DHT22;10704;42.678;23.288;2023-12-20T09:25:24;2.70;99.90
21092;DHT22;10704;42.678;23.288;2023-12-20T09:28:00;2.80;99.90
21092;DHT22;10704;42.678;23.288;2023-12-20T09:30:26;2.90;99.90
21092;DHT22;10704;42.678;23.288;2023-12-20T09:32:52;2.80;99.90
21092;DHT22;10704;42.678;23.288;2023-12-20T09:35:21;2.70;99.90
21092;DHT22;10704;42.678;23.288;2023-12-20T09:37:50;2.70;99.90
21092;DHT22;10704;42.678;23.288;2023-12-20T09:40:21;3.00;99.90
21092;DHT22;10704;42.678;23.288;2023-12-20T09:43:03;3.10;99.90
21092;DHT22;10704;42.678;23.288;2023-12-20T09:45:36;3.10;99.90
21092;DHT22;10704;42.678;23.288;2023-12-20T09:48:06;3.20;99.90
21092;DHT22;10704;42.678;23.288;2023-12-20T09:50:33;3.30;99.90
21092;DHT22;10704;42.678;23.288;2023-12-20T09:53:07;3.40;99.90
21092;DHT22;10704;42.678;23.288;2023-12-20T09:55:39;3.40;99.90
21092;DHT22;10704;42.678;23.288;2023-12-20T09:58:06;3.60;99.90
21092;DHT22;10704;42.678;23.288;2023-12-20T10:00:40;3.80;99.90
21092;DHT22;10704;42.678;23.288;2023-12-20T10:03:11;4.10;99.90
21092;DHT22;10704;42.678;23.288;2023-12-20T10:05:43;5.20;99.90
21092;DHT22;10704;42.678;23.288;2023-12-20T10:08:12;6.40;99.90
21092;DHT22;10704;42.678;23.288;2023-12-20T10:10:43;7.60;99.90
21092;DHT22;10704;42.678;23.288;2023-12-20T10:13:15;8.60;99.90
21092;DHT22;10704;42.678;23.288;2023-12-20T10:15:44;9.80;99.90
21092;DHT22;10704;42.678;23.288;2023-12-20T10:18:12;10.40;99.90
21092;DHT22;10704;42.678;23.288;2023-12-20T10:20:45;10.80;99.90
21092;DHT22;10704;42.678;23.288;2023-12-20T10:23:20;11.10;99.90
21092;DHT22;10704;42.678;23.288;2023-12-20T10:25:58;11.40;99.90
21092;DHT22;10704;42.678;23.288;2023-12-20T10:28:25;11.80;99.90
21092;DHT22;10704;42.678;23.288;2023-12-20T10:30:56;11.90;99.90
21092;DHT22;10704;42.678;23.288;2023-12-20T10:33:27;11.20;99.90
21092;DHT22;10704;42.678;23.288;2023-12-20T10:35:53;11.50;99.90
21092;DHT22;10704;42.678;23.288;2023-12-20T10:38:22;11.50;99.90
21092;DHT22;10704;42.678;23.288;2023-12-20T10:40:53;11.70;99.90
21092;DHT22;10704;42.678;23.288;2023-12-20T10:43:20;11.80;99.90
21092;DHT22;10704;42.678;23.288;2023-12-20T10:45:52;12.10;99.90
21092;DHT22;10704;42.678;23.288;2023-12-20T10:48:18;11.00;99.90
21092;DHT22;10704;42.678;23.288;2023-12-20T10:50:47;9.60;99.90
21092;DHT22;10704;42.678;23.288;2023-12-20T10:53:20;9.00;99.90
21092;DHT22;10704;42.678;23.288;2023-12-20T10:55:52;9.40;99.90
21092;DHT22;10704;42.678;23.288;2023-12-20T10:58:24;9.70;99.90
21092;DHT22;10704;42.678;23.288;2023-12-20T11:01:00;9.30;99.90
21092;DHT22;10704;42.678;23.288;2023-12-20T11:03:34;8.00;99.90
21092;DHT22;10704;42.678;23.288;2023-12-20T11:06:09;7.30;99.90
21092;DHT22;10704;42.678;23.288;2023-12-20T11:08:47;6.60;99.90
21092;DHT22;10704;42.678;23.288;2023-12-20T11:11:26;6.00;99.90
21092;DHT22;10704;42.678;23.288;2023-12-20T11:14:05;6.30;99.90
21092;DHT22;10704;42.678;23.288;2023-12-20T11:16:37;7.50;99.90
21092;DHT22;10704;42.678;23.288;2023-12-20T11:19:14;9.30;99.90
21092;DHT22;10704;42.678;23.288;2023-12-20T11:21:53;10.60;99.90
21092;DHT22;10704;42.678;23.288;2023-12-20T11:24:22;10.90;99.90
21092;DHT22;10704;42.678;23.288;2023-12-20T11:26:56;11.40;99.90
21092;DHT22;10704;42.678;23.288;2023-12-20T11:29:36;11.90;99.90
21092;DHT22;10704;42.678;23.288;2023-12-20T11:34:57;13.10;97.50
21092;DHT22;10704;42.678;23.288;2023-12-20T11:37:38;12.90;96.10
21092;DHT22;10704;42.678;23.288;2023-12-20T11:40:11;12.60;96.90
21092;DHT22;10704;42.678;23.288;2023-12-20T11:42:45;12.90;96.00
21092;DHT22;10704;42.678;23.288;2023-12-20T11:45:21;13.00;95.80
21092;DHT22;10704;42.678;23.288;2023-12-20T11:47:51;12.70;95.50
21092;DHT22;10704;42.678;23.288;2023-12-20T11:50:25;12.90;95.20
21092;DHT22;10704;42.678;23.288;2023-12-20T11:52:55;12.90;95.00
21092;DHT22;10704;42.678;23.288;2023-12-20T11:55:24;12.60;94.80
21092;DHT22;10704;42.678;23.288;2023-12-20T11:57:51;12.70;95.50
21092;DHT22;10704;42.678;23.288;2023-12-20T12:00:20;12.40;95.40
21092;DHT22;10704;42.678;23.288;2023-12-20T12:02:59;12.40;95.60
21092;DHT22;10704;42.678;23.288;2023-12-20T12:05:31;13.00;95.10
21092;DHT22;10704;42.678;23.288;2023-12-20T12:08:01;13.30;94.20
21092;DHT22;10704;42.678;23.288;2023-12-20T12:10:27;13.20;94.10
21092;DHT22;10704;42.678;23.288;2023-12-20T12:12:55;13.60;93.80
21092;DHT22;10704;42.678;23.288;2023-12-20T12:15:27;13.40;93.70
21092;DHT22;10704;42.678;23.288;2023-12-20T12:17:58;12.80;93.50
21092;DHT22;10704;42.678;23.288;2023-12-20T12:20:24;12.60;95.10
21092;DHT22;10704;42.678;23.288;2023-12-20T12:23:04;12.50;94.60
21092;DHT22;10704;42.678;23.288;2023-12-20T12:25:34;12.40;95.80
21092;DHT22;10704;42.678;23.288;2023-12-20T12:28:06;12.80;95.00
21092;DHT22;10704;42.678;23.288;2023-12-20T12:30:38;12.70;94.90
21092;DHT22;10704;42.678;23.288;2023-12-20T12:33:10;12.40;94.90
21092;DHT22;10704;42.678;23.288;2023-12-20T12:35:39;11.70;96.30
21092;DHT22;10704;42.678;23.288;2023-12-20T12:38:08;11.50;97.00
21092;DHT22;10704;42.678;23.288;2023-12-20T12:40:39;11.60;96.90
21092;DHT22;10704;42.678;23.288;2023-12-20T12:43:06;11.40;97.70
21092;DHT22;10704;42.678;23.288;2023-12-20T12:45:34;11.20;97.90
21092;DHT22;10704;42.678;23.288;2023-12-20T12:48:05;11.40;98.00
21092;DHT22;10704;42.678;23.288;2023-12-20T12:50:34;11.30;97.80
21092;DHT22;10704;42.678;23.288;2023-12-20T12:53:02;11.00;98.50
21092;DHT22;10704;42.678;23.288;2023-12-20T12:55:31;10.80;99.00
21092;DHT22;10704;42.678;23.288;2023-12-20T12:58:03;10.40;99.90
21092;DHT22;10704;42.678;23.288;2023-12-20T13:00:35;10.10;99.90
21092;DHT22;10704;42.678;23.288;2023-12-20T13:03:04;9.60;99.90
21092;DHT22;10704;42.678;23.288;2023-12-20T13:05:35;9.40;99.90
21092;DHT22;10704;42.678;23.288;2023-12-20T13:08:06;9.60;99.90
21092;DHT22;10704;42.678;23.288;2023-12-20T13:10:35;9.40;99.90
21092;DHT22;10704;42.678;23.288;2023-12-20T13:13:09;9.10;99.90
21092;DHT22;10704;42.678;23.288;2023-12-20T13:15:35;8.80;99.90
21092;DHT22;10704;42.678;23.288;2023-12-20T13:18:04;8.40;99.90
21092;DHT22;10704;42.678;23.288;2023-12-20T13:20:34;7.80;99.90
21092;DHT22;10704;42.678;23.288;2023-12-20T13:23:00;7.40;99.90
21092;DHT22;10704;42.678;23.288;2023-12-20T13:25:28;7.30;99.90
21092;DHT22;10704;42.678;23.288;2023-12-20T13:27:59;7.20;99.90
21092;DHT22;10704;42.678;23.288;2023-12-20T13:30:38;7.10;99.90
21092;DHT22;10704;42.678;23.288;2023-12-20T13:33:11;7.10;99.90
21092;DHT22;10704;42.678;23.288;2023-12-20T13:35:43;6.90;99.90
21092;DHT22;10704;42.678;23.288;2023-12-20T13:38:14;7.00;99.90
21092;DHT22;10704;42.678;23.288;2023-12-20T13:40:40;7.00;99.90
21092;DHT22;10704;42.678;23.288;2023-12-20T13:43:06;7.00;99.90
21092;DHT22;10704;42.678;23.288;2023-12-20T13:45:39;6.90;99.90
21092;DHT22;10704;42.678;23.288;2023-12-20T13:48:07;6.80;99.90
21092;DHT22;10704;42.678;23.288;2023-12-20T13:50:35;6.70;99.90
21092;DHT22;10704;42.678;23.288;2023-12-20T13:53:01;6.60;99.90
21092;DHT22;10704;42.678;23.288;2023-12-20T13:55:31;6.50;99.90
21092;DHT22;10704;42.678;23.288;2023-12-20T13:57:59;6.20;99.90
21092;DHT22;10704;42.678;23.288;2023-12-20T14:00:27;6.00;99.90
21092;DHT22;10704;42.678;23.288;2023-12-20T14:02:56;5.80;99.90
21092;DHT22;10704;42.678;23.288;2023-12-20T14:05:26;5.60;99.90
21092;DHT22;10704;42.678;23.288;2023-12-20T14:08:00;5.50;99.90
21092;DHT22;10704;42.678;23.288;2023-12-20T14:10:26;5.30;99.90
21092;DHT22;10704;42.678;23.288;2023-12-20T14:12:57;5.20;99.90
21092;DHT22;10704;42.678;23.288;2023-12-20T14:15:23;5.20;99.90
21092;DHT22;10704;42.678;23.288;2023-12-20T14:17:56;5.00;99.90
21092;DHT22;10704;42.678;23.288;2023-12-20T14:20:28;4.80;99.90
21092;DHT22;10704;42.678;23.288;2023-12-20T14:22:55;4.60;99.90
21092;DHT22;10704;42.678;23.288;2023-12-20T14:25:23;4.40;99.90
21092;DHT22;10704;42.678;23.288;2023-12-20T14:27:57;4.30;99.90
21092;DHT22;10704;42.678;23.288;2023-12-20T14:30:26;4.20;99.90
21092;DHT22;10704;42.678;23.288;2023-12-20T14:32:59;3.90;99.90
21092;DHT22;10704;42.678;23.288;2023-12-20T14:35:28;3.70;99.90
21092;DHT22;10704;42.678;23.288;2023-12-20T14:37:54;3.50;99.90
21092;DHT22;10704;42.678;23.288;2023-12-20T14:40:23;3.40;99.90
21092;DHT22;10704;42.678;23.288;2023-12-20T14:42:49;3.10;99.90
21092;DHT22;10704;42.678;23.288;2023-12-20T14:45:21;2.90;99.90
21092;DHT22;10704;42.678;23.288;2023-12-20T14:47:49;3.00;99.90
21092;DHT22;10704;42.678;23.288;2023-12-20T14:50:17;2.80;99.90
21092;DHT22;10704;42.678;23.288;2023-12-20T14:52:51;2.70;99.90
21092;DHT22;10704;42.678;23.288;2023-12-20T14:55:24;2.40;99.90
21092;DHT22;10704;42.678;23.288;2023-12-20T14:57:55;2.30;99.90
21092;DHT22;10704;42.678;23.288;2023-12-20T15:00:24;2.20;99.90
21092;DHT22;10704;42.678;23.288;2023-12-20T15:02:53;2.00;99.90
21092;DHT22;10704;42.678;23.288;2023-12-20T15:05:23;1.90;99.90
21092;DHT22;10704;42.678;23.288;2023-12-20T15:07:52;1.80;99.90
21092;DHT22;10704;42.678;23.288;2023-12-20T15:10:20;1.60;99.90
21092;DHT22;10704;42.678;23.288;2023-12-20T15:12:49;1.70;99.90
21092;DHT22;10704;42.678;23.288;2023-12-20T15:15:17;1.70;99.90
21092;DHT22;10704;42.678;23.288;2023-12-20T15:17:45;1.70;99.90
21092;DHT22;10704;42.678;23.288;2023-12-20T15:20:19;1.70;99.90
21092;DHT22;10704;42.678;23.288;2023-12-20T15:22:46;1.70;99.90
21092;DHT22;10704;42.678;23.288;2023-12-20T15:25:12;1.70;99.90
21092;DHT22;10704;42.678;23.288;2023-12-20T15:27:49;1.60;99.90
21092;DHT22;10704;42.678;23.288;2023-12-20T15:30:19;1.80;99.90
21092;DHT22;10704;42.678;23.288;2023-12-20T15:32:45;1.60;99.90
21092;DHT22;10704;42.678;23.288;2023-12-20T15:35:11;1.60;99.90
21092;DHT22;10704;42.678;23.288;2023-12-20T15:37:40;1.70;99.90
21092;DHT22;10704;42.678;23.288;2023-12-20T15:40:11;1.60;99.90
21092;DHT22;10704;42.678;23.288;2023-12-20T15:42:40;1.70;99.90